Time;durP1;ratioP1;P1;durP2;ratioP2;P2;SDS_P1;SDS_P2;PMS_P1;PMS_P2;Temp;Humidity;BMP_temperature;BMP_pressure;BME280_temperature;BME280_humidity;BME280_pressure;Samples;Min_cycle;Max_cycle;Signal;HPM_P1;HPM_P2
2022/01/20 00:00:03;;;;;;;69.55;33.92;;;;;;;-0.82;64.71;100446.75;4460288;32;33380;-61
2022/01/20 00:02:35;;;;;;;72.18;32.33;;;;;;;-0.54;63.33;100434.19;4457418;32;33927;-62
2022/01/20 00:08:12;;;;;;;45.65;24.35;;;;;;;-0.82;64.18;100439.12;4454284;32;34428;-62
2022/01/20 00:23:08;;;;;;;39.97;20.05;;;;;;;-2.33;67.91;100446.56;4464820;32;34423;-62
2022/01/20 00:27:37;;;;;;;50.47;24.27;;;;;;;-3.30;71.54;100447.97;4421374;32;34357;-60
2022/01/20 00:37:31;;;;;;;46.75;22.27;;;;;;;-1.90;68.88;100453.59;4468004;32;34169;-62
2022/01/20 00:39:59;;;;;;;40.65;17.62;;;;;;;-1.63;66.14;100457.19;4456333;32;34500;-62
2022/01/20 00:42:26;;;;;;;35.15;17.23;;;;;;;-1.09;64.64;100450.84;4462865;32;34643;-62
2022/01/20 00:44:55;;;;;;;39.70;16.08;;;;;;;-1.59;65.80;100455.13;4464837;32;34679;-63
2022/01/20 00:47:23;;;;;;;34.85;17.23;;;;;;;-1.25;65.57;100452.59;4465772;32;34274;-61
2022/01/20 00:49:50;;;;;;;35.40;15.05;;;;;;;-1.10;63.46;100455.78;4458179;32;33463;-61
2022/01/20 00:52:18;;;;;;;38.65;16.33;;;;;;;-1.64;65.05;100455.41;4463821;32;33764;-62
2022/01/20 00:54:45;;;;;;;39.95;17.37;;;;;;;-1.59;65.20;100455.13;4460812;32;33780;-61
2022/01/20 00:57:14;;;;;;;37.30;17.52;;;;;;;-2.20;67.26;100453.84;4462694;32;34574;-61
2022/01/20 00:59:41;;;;;;;48.28;21.17;;;;;;;-1.93;67.52;100460.91;4461870;32;33513;-61
2022/01/20 01:02:11;;;;;;;37.95;19.02;;;;;;;-2.13;67.60;100461.34;4462614;32;31215;-61
2022/01/20 01:04:39;;;;;;;41.60;19.08;;;;;;;-1.69;66.65;100456.56;4457823;32;33606;-61
2022/01/20 01:09:54;;;;;;;38.40;17.58;;;;;;;-1.66;67.04;100456.88;4458706;32;33302;-63
2022/01/20 01:12:35;;;;;;;40.33;19.23;;;;;;;-1.61;66.94;100455.72;4467117;32;34396;-62
2022/01/20 01:15:12;;;;;;;42.22;19.70;;;;;;;-1.45;66.39;100450.56;4463992;32;33445;-62
2022/01/20 01:20:28;;;;;;;52.80;23.50;;;;;;;-2.31;69.03;100455.25;4456562;32;33818;-62
2022/01/20 01:22:56;;;;;;;51.63;21.95;;;;;;;-2.39;69.85;100466.22;4438338;32;34456;-63
2022/01/20 01:25:24;;;;;;;48.28;21.52;;;;;;;-2.33;69.50;100466.88;4458039;32;34637;-62
2022/01/20 01:27:51;;;;;;;57.50;24.87;;;;;;;-2.70;71.11;100457.00;4464702;32;33585;-63
2022/01/20 01:30:46;;;;;;;64.68;26.10;;;;;;;-3.41;73.99;100444.28;4462711;32;33156;-62
2022/01/20 01:33:13;;;;;;;57.83;25.45;;;;;;;-3.59;75.20;100448.22;4468173;32;33741;-62
2022/01/20 01:35:42;;;;;;;52.58;24.27;;;;;;;-3.37;74.56;100427.03;4462950;32;33635;-64
2022/01/20 01:40:41;;;;;;;42.00;18.77;;;;;;;-2.94;74.30;100419.75;4464606;32;33875;-63
2022/01/20 01:43:17;;;;;;;35.80;17.27;;;;;;;-2.51;73.09;100419.25;4464439;32;33654;-62
2022/01/20 01:45:46;;;;;;;41.70;17.40;;;;;;;-1.90;71.74;100415.50;4458545;32;33918;-62
2022/01/20 01:48:14;;;;;;;40.67;17.90;;;;;;;-1.44;70.58;100404.97;4451507;32;34825;-62
2022/01/20 01:50:42;;;;;;;58.83;23.38;;;;;;;-1.30;69.60;100377.53;4457539;32;33785;-62
2022/01/20 01:53:10;;;;;;;54.30;22.77;;;;;;;-1.68;70.31;100378.00;4463256;32;34041;-62
2022/01/20 01:55:37;;;;;;;51.40;23.12;;;;;;;-2.12;71.72;100378.50;4460143;32;33570;-62
2022/01/20 01:58:05;;;;;;;50.85;22.92;;;;;;;-1.01;68.89;100376.22;4464753;32;34144;-62
2022/01/20 02:00:34;;;;;;;46.25;20.67;;;;;;;-0.24;65.38;100372.66;4467523;32;33807;-61
2022/01/20 02:03:02;;;;;;;44.28;18.40;;;;;;;-0.55;66.06;100358.63;4467886;32;33815;-63
2022/01/20 02:05:31;;;;;;;39.60;19.83;;;;;;;-0.05;64.40;100372.78;4460112;32;34011;-63
2022/01/20 02:19:11;;;;;;;;;;;;;;;-0.54;65.10;100330.78;4458035;32;34066;-63
2022/01/20 02:21:49;;;;;;;39.47;17.50;;;;;;;-0.85;66.03;100329.44;4459182;32;34197;-63
2022/01/20 02:24:17;;;;;;;43.08;19.15;;;;;;;-0.56;65.88;100318.66;4461424;32;33076;-63
2022/01/20 02:26:45;;;;;;;42.05;17.85;;;;;;;-0.08;64.18;100306.28;4458583;32;33848;-63
2022/01/20 02:29:13;;;;;;;32.28;15.63;;;;;;;-0.06;64.18;100309.84;4459846;32;34806;-64
2022/01/20 02:31:41;;;;;;;30.75;15.35;;;;;;;0.21;62.66;100300.47;4460322;32;33356;-64
2022/01/20 02:34:13;;;;;;;34.53;15.20;;;;;;;-0.10;63.66;100312.88;4462188;32;33808;-65
2022/01/20 02:36:44;;;;;;;39.58;15.27;;;;;;;-0.18;63.66;100303.62;4460339;32;34554;-64
2022/01/20 02:44:51;;;;;;;38.45;17.48;;;;;;;-0.58;64.99;100315.06;4467228;32;34648;-62
2022/01/20 02:47:19;;;;;;;;;;;;;;;-0.15;63.83;100304.81;4464477;32;33910;-63
2022/01/20 02:49:47;;;;;;;33.30;15.32;;;;;;;-0.26;63.46;100296.12;4461361;32;35119;-62
2022/01/20 02:52:15;;;;;;;38.17;14.63;;;;;;;-0.06;63.23;100284.41;4470029;32;33821;-63
2022/01/20 02:54:43;;;;;;;32.88;14.20;;;;;;;-0.22;64.18;100288.03;4451529;32;34027;-64
2022/01/20 02:57:11;;;;;;;32.92;14.55;;;;;;;-0.62;64.86;100289.34;4468077;32;34825;-63
2022/01/20 02:59:38;;;;;;;29.23;13.35;;;;;;;-0.65;65.23;100295.78;4464729;32;35014;-64
2022/01/20 03:02:08;;;;;;;30.02;13.10;;;;;;;-1.37;67.89;100279.47;4464973;32;34575;-62
2022/01/20 03:04:37;;;;;;;33.05;14.30;;;;;;;-0.75;65.65;100296.53;4464531;32;34032;-64
2022/01/20 03:07:11;;;;;;;31.42;13.85;;;;;;;-1.85;68.93;100272.16;4442037;32;77555;-63
2022/01/20 03:09:39;;;;;;;35.58;14.07;;;;;;;-1.77;69.31;100265.31;4469731;32;33832;-64
2022/01/20 03:12:07;;;;;;;29.50;13.45;;;;;;;-1.00;67.59;100283.97;4463815;32;33815;-64
2022/01/20 03:14:35;;;;;;;33.45;14.35;;;;;;;-1.43;68.66;100269.56;4466608;32;33806;-63
2022/01/20 03:17:03;;;;;;;26.73;12.50;;;;;;;-0.63;66.50;100262.09;4466108;32;33671;-63
2022/01/20 03:19:31;;;;;;;26.87;12.05;;;;;;;-1.48;69.20;100263.13;4467922;32;34062;-63
2022/01/20 03:21:58;;;;;;;26.67;12.77;;;;;;;-0.73;66.21;100261.06;4464510;32;34626;-64
2022/01/20 03:24:26;;;;;;;31.42;12.27;;;;;;;-1.22;67.04;100254.63;4455785;32;34618;-64
2022/01/20 03:26:53;;;;;;;31.90;14.68;;;;;;;-2.01;71.00;100251.03;4463181;32;32361;-64
2022/01/20 03:29:21;;;;;;;30.55;13.10;;;;;;;-1.74;70.06;100241.84;4466697;32;33800;-64
2022/01/20 03:31:49;;;;;;;31.17;13.13;;;;;;;-1.65;69.84;100238.59;4463410;32;34622;-64
2022/01/20 03:34:16;;;;;;;31.90;13.70;;;;;;;-1.30;68.66;100245.38;4459099;32;33683;-62
2022/01/20 03:36:44;;;;;;;30.90;13.65;;;;;;;-1.75;69.93;100238.41;4438526;32;32521;-63
2022/01/20 03:39:13;;;;;;;29.15;13.27;;;;;;;-1.16;68.37;100239.09;4461938;32;33945;-62
2022/01/20 03:41:41;;;;;;;30.95;14.15;;;;;;;-1.24;68.44;100235.78;4458589;32;33789;-64
2022/01/20 03:44:09;;;;;;;27.37;13.32;;;;;;;-1.74;70.00;100229.16;4464308;32;33996;-64
2022/01/20 03:46:37;;;;;;;28.62;13.65;;;;;;;-1.26;69.07;100222.94;4464745;32;34043;-62
2022/01/20 03:49:10;;;;;;;29.48;13.60;;;;;;;-0.95;67.32;100225.03;4461391;32;34701;-62
2022/01/20 03:51:38;;;;;;;27.80;13.35;;;;;;;-0.89;67.30;100215.44;4459255;32;33223;-64
2022/01/20 03:54:06;;;;;;;30.50;14.87;;;;;;;-1.13;67.09;100225.03;4462565;32;34774;-64
2022/01/20 03:56:38;;;;;;;29.42;14.40;;;;;;;-1.00;66.68;100220.37;4466342;32;34633;-64
2022/01/20 03:59:08;;;;;;;37.22;14.93;;;;;;;-1.82;69.26;100216.56;4455512;32;34900;-63
2022/01/20 04:01:35;;;;;;;32.45;15.27;;;;;;;-1.10;66.81;100205.00;4456711;32;33569;-64
2022/01/20 04:04:04;;;;;;;29.75;13.98;;;;;;;-1.14;67.31;100213.09;4465656;32;34789;-63
2022/01/20 04:06:32;;;;;;;29.65;13.62;;;;;;;-0.95;66.79;100204.69;4460799;32;34624;-64
2022/01/20 04:08:59;;;;;;;31.58;14.20;;;;;;;-1.43;68.28;100207.66;4463747;32;33931;-64
2022/01/20 04:11:28;;;;;;;32.10;13.05;;;;;;;-1.03;67.54;100209.91;4468119;32;34034;-62
2022/01/20 04:13:56;;;;;;;31.65;14.27;;;;;;;-1.66;69.12;100197.78;4449238;32;34617;-63
2022/01/20 04:16:38;;;;;;;31.87;15.57;;;;;;;-2.84;73.04;100207.03;4459715;32;34407;-62
2022/01/20 04:19:09;;;;;;;31.77;14.63;;;;;;;-2.57;73.45;100217.50;4442526;32;33403;-63
2022/01/20 04:21:38;;;;;;;33.03;14.93;;;;;;;-2.42;72.29;100213.09;4448325;32;33772;-64
2022/01/20 04:24:06;;;;;;;32.95;14.30;;;;;;;-2.36;72.49;100202.66;4468855;32;34543;-64
2022/01/20 04:26:35;;;;;;;32.92;14.77;;;;;;;-2.17;71.98;100208.84;4444976;32;33967;-64
2022/01/20 04:29:04;;;;;;;36.08;14.90;;;;;;;-1.96;71.03;100214.31;4457098;32;33921;-63
2022/01/20 04:31:33;;;;;;;33.47;15.40;;;;;;;-2.61;72.15;100217.03;4460454;32;33870;-62
2022/01/20 04:34:02;;;;;;;35.67;15.60;;;;;;;-1.59;69.73;100220.50;4462268;32;33907;-63
2022/01/20 04:36:32;;;;;;;35.55;17.52;;;;;;;-1.82;69.82;100214.03;4465858;32;34012;-63
2022/01/20 04:39:01;;;;;;;28.70;12.68;;;;;;;-1.46;68.91;100205.75;4457874;32;34001;-63
2022/01/20 04:41:30;;;;;;;36.65;14.55;;;;;;;-1.53;69.14;100216.03;4457865;32;34582;-64
2022/01/20 04:43:59;;;;;;;35.33;15.45;;;;;;;-1.44;68.59;100226.22;4457017;32;33821;-62
2022/01/20 04:46:37;;;;;;;36.20;14.93;;;;;;;-1.92;69.88;100224.03;4462974;32;33943;-63
2022/01/20 04:59:44;;;;;;;33.28;15.85;;;;;;;-2.17;70.81;100221.56;4455795;32;34815;-64
2022/01/20 05:02:11;;;;;;;37.00;19.05;;;;;;;-2.60;71.89;100227.31;4450161;32;34471;-62
2022/01/20 05:04:42;;;;;;;39.25;19.27;;;;;;;-2.26;72.03;100220.63;4455066;32;31160;-63
2022/01/20 05:07:17;;;;;;;46.17;18.73;;;;;;;-2.15;71.85;100218.28;4446992;32;31724;-64
2022/01/20 05:09:45;;;;;;;37.10;17.30;;;;;;;-1.89;70.72;100214.19;4462851;32;34166;-64
2022/01/20 05:12:20;;;;;;;40.03;19.50;;;;;;;-1.70;69.88;100219.47;4463824;32;33694;-62
2022/01/20 05:14:48;;;;;;;47.25;19.35;;;;;;;-2.39;71.66;100212.53;4459322;32;34075;-64
2022/01/20 05:17:15;;;;;;;40.65;19.40;;;;;;;-2.27;70.65;100201.06;4457986;32;34727;-64
2022/01/20 05:19:43;;;;;;;42.03;19.40;;;;;;;-1.93;69.71;100201.94;4463084;32;34100;-64
2022/01/20 05:22:11;;;;;;;49.70;17.33;;;;;;;-1.70;68.72;100205.84;4464658;32;33840;-63
2022/01/20 05:24:39;;;;;;;41.88;17.48;;;;;;;-1.19;66.95;100215.16;4462561;32;34784;-64
2022/01/20 05:27:07;;;;;;;35.00;16.50;;;;;;;-3.15;74.91;100234.25;4458067;32;33823;-64
2022/01/20 05:29:35;;;;;;;41.30;18.15;;;;;;;-3.04;75.97;100221.06;4462872;32;35027;-64
2022/01/20 05:32:02;;;;;;;37.97;16.75;;;;;;;-3.16;76.98;100214.72;4462547;32;33507;-63
2022/01/20 05:34:30;;;;;;;39.92;17.05;;;;;;;-2.91;76.70;100212.22;4470023;32;34672;-63
2022/01/20 05:36:58;;;;;;;39.42;17.48;;;;;;;-2.87;77.00;100210.16;4467079;32;34337;-64
2022/01/20 05:39:26;;;;;;;37.95;17.98;;;;;;;-2.81;77.00;100207.38;4463942;32;35088;-64
2022/01/20 05:41:53;;;;;;;41.92;18.90;;;;;;;-2.61;76.45;100222.09;4460544;32;35432;-63
2022/01/20 05:44:22;;;;;;;38.25;17.60;;;;;;;-2.67;76.41;100204.59;4457871;32;33972;-64
2022/01/20 05:46:52;;;;;;;39.03;18.67;;;;;;;-2.48;76.97;100206.50;4445281;32;33962;-64
2022/01/20 05:49:21;;;;;;;42.72;19.23;;;;;;;-2.45;76.32;100197.56;4446037;32;34300;-63
2022/01/20 05:51:52;;;;;;;46.50;20.85;;;;;;;-2.67;77.17;100202.06;4464450;32;34395;-63
2022/01/20 05:54:21;;;;;;;41.33;19.52;;;;;;;-2.84;78.63;100200.34;4464474;32;33785;-64
2022/01/20 05:56:49;;;;;;;40.85;19.48;;;;;;;-2.40;77.15;100195.50;4458028;32;33913;-65
2022/01/20 05:59:17;;;;;;;40.83;20.42;;;;;;;-2.13;75.40;100199.91;4461422;32;32394;-62
2022/01/20 06:01:51;;;;;;;50.22;22.00;;;;;;;-1.82;74.66;100211.50;4459661;32;34386;-63
2022/01/20 06:04:20;;;;;;;44.47;19.17;;;;;;;-2.17;75.46;100218.12;4457798;32;33596;-64
2022/01/20 06:06:48;;;;;;;46.63;20.73;;;;;;;-1.52;73.88;100215.31;4431665;32;33166;-62
2022/01/20 06:09:15;;;;;;;47.42;20.10;;;;;;;-1.93;74.33;100204.47;4460832;32;34851;-65
2022/01/20 06:11:43;;;;;;;45.03;21.55;;;;;;;-2.31;76.30;100204.03;4465727;32;34354;-65
2022/01/20 06:14:11;;;;;;;39.10;18.85;;;;;;;-2.25;76.61;100207.19;4458137;32;34173;-64
2022/01/20 06:16:41;;;;;;;41.53;18.50;;;;;;;-2.13;77.23;100196.50;4459455;32;34004;-63
2022/01/20 06:19:09;;;;;;;41.17;18.45;;;;;;;-2.27;77.73;100200.19;4463014;32;34062;-63
2022/01/20 06:21:38;;;;;;;44.83;19.52;;;;;;;-2.19;78.43;100202.72;4459648;32;34302;-63
2022/01/20 06:24:05;;;;;;;43.92;19.40;;;;;;;-2.39;78.74;100197.31;4463370;32;33925;-63
2022/01/20 06:26:33;;;;;;;44.97;19.95;;;;;;;-1.81;76.94;100194.66;4458531;32;34750;-63
2022/01/20 06:29:02;;;;;;;44.63;19.42;;;;;;;-1.54;75.78;100199.00;4459511;32;34142;-63
2022/01/20 06:31:30;;;;;;;44.55;20.25;;;;;;;-1.72;76.73;100200.66;4456197;32;33471;-64
2022/01/20 06:33:58;;;;;;;39.40;19.83;;;;;;;-1.59;76.64;100201.09;4444070;32;33666;-63
2022/01/20 06:36:26;;;;;;;43.72;20.75;;;;;;;-0.83;74.05;100198.22;4455317;32;33640;-63
2022/01/20 06:38:54;;;;;;;48.03;21.30;;;;;;;-0.56;71.47;100197.44;4461198;32;35026;-63
2022/01/20 06:41:22;;;;;;;42.20;18.75;;;;;;;-0.18;69.13;100202.66;4457827;32;33909;-63
2022/01/20 06:43:49;;;;;;;41.25;21.85;;;;;;;-1.19;73.07;100209.19;4460700;32;33501;-62
2022/01/20 06:46:17;;;;;;;40.12;18.65;;;;;;;-1.01;72.80;100200.78;4444023;32;33944;-63
2022/01/20 06:48:46;;;;;;;41.67;18.42;;;;;;;-0.06;69.03;100200.34;4458097;32;33946;-64
2022/01/20 06:51:14;;;;;;;42.53;19.08;;;;;;;-1.21;71.78;100205.59;4457263;32;33467;-64
2022/01/20 06:53:42;;;;;;;35.13;17.40;;;;;;;-0.12;69.78;100192.16;4457658;32;34599;-63
2022/01/20 06:56:09;;;;;;;40.00;17.83;;;;;;;-0.22;70.93;100183.66;4461280;32;34747;-62
2022/01/20 06:58:57;;;;;;;44.75;19.37;;;;;;;-0.12;70.87;100187.06;4462560;32;34117;-63
2022/01/20 07:01:26;;;;;;;37.15;14.98;;;;;;;0.08;70.07;100187.25;4453675;32;33816;-63
2022/01/20 07:03:54;;;;;;;35.22;16.83;;;;;;;-0.11;71.39;100177.03;4455650;32;34003;-62
2022/01/20 07:06:21;;;;;;;37.53;16.90;;;;;;;0.32;70.26;100169.88;4454377;32;33879;-62
2022/01/20 07:08:52;;;;;;;46.33;18.20;;;;;;;-0.05;71.80;100158.87;4460248;32;32489;-61
2022/01/20 07:11:19;;;;;;;39.20;19.30;;;;;;;0.22;71.48;100157.06;4450895;32;33508;-62
2022/01/20 07:13:47;;;;;;;42.67;18.95;;;;;;;-1.07;76.12;100164.59;4460018;32;34644;-63
2022/01/20 07:16:14;;;;;;;43.75;18.20;;;;;;;-0.50;75.32;100156.38;4460178;32;33915;-62
2022/01/20 07:18:42;;;;;;;42.15;16.83;;;;;;;-1.02;76.68;100163.41;4459267;32;34203;-63
2022/01/20 07:21:09;;;;;;;37.92;18.60;;;;;;;-1.04;77.46;100156.41;4446512;32;32598;-63
2022/01/20 07:23:38;;;;;;;42.40;19.45;;;;;;;-0.33;75.11;100161.41;4461338;32;33792;-65
2022/01/20 07:26:06;;;;;;;40.05;18.25;;;;;;;-0.54;75.71;100149.19;4461050;32;34795;-62
2022/01/20 07:28:34;;;;;;;37.28;17.33;;;;;;;0.49;72.02;100136.63;4460115;32;34153;-61
2022/01/20 07:31:02;;;;;;;41.35;19.10;;;;;;;0.71;70.60;100138.53;4456986;32;33870;-62
2022/01/20 07:33:31;;;;;;;39.42;17.80;;;;;;;-0.04;73.62;100135.19;4458007;32;33490;-63
2022/01/20 07:35:58;;;;;;;37.55;17.73;;;;;;;1.23;69.26;100129.44;4459763;32;34926;-62
2022/01/20 07:38:26;;;;;;;39.15;18.12;;;;;;;1.01;69.57;100136.91;4455546;32;34140;-63
2022/01/20 07:40:54;;;;;;;37.13;17.70;;;;;;;0.72;70.98;100145.44;4459388;32;34295;-61
2022/01/20 07:43:21;;;;;;;40.22;17.95;;;;;;;0.55;71.21;100132.06;4453915;32;34022;-64
2022/01/20 07:45:53;;;;;;;39.28;17.55;;;;;;;1.02;70.49;100133.56;4462243;32;34016;-63
2022/01/20 07:48:21;;;;;;;39.20;17.75;;;;;;;1.04;69.52;100134.59;4445889;32;33435;-62
2022/01/20 07:50:50;;;;;;;36.97;16.70;;;;;;;1.25;69.60;100128.81;4461958;32;33873;-63
2022/01/20 07:53:18;;;;;;;32.92;18.48;;;;;;;1.75;67.93;100131.34;4457039;32;34511;-63
2022/01/20 07:55:46;;;;;;;41.95;19.10;;;;;;;2.07;67.15;100130.62;4462763;32;33869;-64
2022/01/20 07:58:14;;;;;;;38.40;18.77;;;;;;;2.31;65.73;100131.75;4467341;32;34083;-64
2022/01/20 08:00:42;;;;;;;41.08;17.00;;;;;;;2.13;67.06;100126.91;4461610;32;33584;-63
2022/01/20 08:03:10;;;;;;;36.95;17.25;;;;;;;2.22;66.93;100125.88;4457242;32;33780;-63
2022/01/20 08:05:39;;;;;;;32.53;16.80;;;;;;;2.14;67.23;100138.94;4445854;32;34554;-63
2022/01/20 08:08:07;;;;;;;32.38;15.18;;;;;;;2.56;66.25;100133.00;4450182;32;33213;-63
2022/01/20 08:10:35;;;;;;;33.65;14.32;;;;;;;2.12;67.43;100135.34;4461904;32;34348;-62
2022/01/20 08:13:04;;;;;;;34.47;15.07;;;;;;;2.10;67.53;100131.75;4459159;32;32854;-62
2022/01/20 08:15:32;;;;;;;34.17;15.52;;;;;;;2.25;68.40;100141.47;4447864;32;33428;-63
2022/01/20 08:18:00;;;;;;;32.95;15.05;;;;;;;2.46;67.27;100133.03;4458966;32;34049;-63
2022/01/20 08:20:28;;;;;;;32.28;14.82;;;;;;;2.30;68.34;100132.53;4458063;32;33521;-63
2022/01/20 08:22:56;;;;;;;28.30;14.02;;;;;;;2.87;65.63;100132.03;4455907;32;34046;-63
2022/01/20 08:25:26;;;;;;;26.60;13.52;;;;;;;2.64;66.41;100137.84;4459991;32;33662;-62
2022/01/20 08:27:53;;;;;;;34.05;14.93;;;;;;;2.76;66.04;100136.28;4456921;32;34821;-63
2022/01/20 08:30:22;;;;;;;31.98;15.40;;;;;;;2.58;66.72;100137.34;4456485;32;33577;-62
2022/01/20 08:32:52;;;;;;;29.05;14.15;;;;;;;2.55;67.12;100138.00;4458925;32;33412;-62
2022/01/20 08:35:23;;;;;;;35.00;15.05;;;;;;;2.84;66.17;100130.12;4445913;32;34785;-63
2022/01/20 08:37:52;;;;;;;30.42;14.82;;;;;;;2.80;66.44;100135.78;4456716;32;33922;-62
2022/01/20 08:40:23;;;;;;;34.08;15.13;;;;;;;3.08;66.06;100137.97;4458298;32;33536;-64
2022/01/20 08:42:52;;;;;;;32.45;14.60;;;;;;;2.83;66.70;100141.13;4463204;32;33906;-61
2022/01/20 08:45:25;;;;;;;30.45;15.50;;;;;;;2.58;67.59;100132.25;4447081;32;33593;-62
2022/01/20 08:47:55;;;;;;;35.58;15.55;;;;;;;1.79;70.11;100128.28;4437673;32;33222;-62
2022/01/20 08:50:24;;;;;;;37.08;15.65;;;;;;;1.67;71.08;100125.59;4463985;32;34500;-61
2022/01/20 08:52:52;;;;;;;32.10;14.55;;;;;;;2.84;67.61;100112.22;4461148;32;33360;-62
2022/01/20 08:55:20;;;;;;;30.05;15.25;;;;;;;2.83;66.34;100109.53;4458078;32;34008;-61
2022/01/20 08:57:48;;;;;;;26.50;13.38;;;;;;;3.06;65.93;100108.81;4464488;32;34133;-63
2022/01/20 09:00:17;;;;;;;27.83;13.05;;;;;;;2.94;65.24;100119.84;4450027;32;34263;-62
2022/01/20 09:02:46;;;;;;;30.05;14.98;;;;;;;2.84;65.92;100107.09;4460060;32;34180;-62
2022/01/20 09:05:14;;;;;;;31.98;15.00;;;;;;;3.10;65.11;100121.06;4457762;32;34653;-62
2022/01/20 09:07:42;;;;;;;30.65;15.05;;;;;;;3.07;65.33;100116.62;4463832;32;34119;-62
2022/01/20 09:10:18;;;;;;;34.58;14.27;;;;;;;2.95;65.29;100113.97;4458786;32;34354;-63
2022/01/20 09:15:27;;;;;;;30.62;15.27;;;;;;;3.47;64.17;100129.09;4461138;32;34237;-62
2022/01/20 09:18:07;;;;;;;29.37;14.50;;;;;;;3.25;64.67;100132.53;4444974;32;33091;-62
2022/01/20 09:20:37;;;;;;;27.40;14.45;;;;;;;3.65;64.04;100142.41;4457190;32;33498;-63
2022/01/20 09:23:06;;;;;;;30.95;14.15;;;;;;;3.42;64.66;100130.38;4464662;32;36167;-63
2022/01/20 09:25:34;;;;;;;34.20;17.17;;;;;;;3.99;63.07;100135.66;4442770;32;33483;-64
2022/01/20 09:28:02;;;;;;;33.75;18.45;;;;;;;3.96;63.01;100138.00;4440621;32;35008;-62
2022/01/20 09:30:32;;;;;;;29.98;14.38;;;;;;;3.83;63.09;100132.72;4452585;32;33552;-62
2022/01/20 09:35:31;;;;;;;29.58;14.05;;;;;;;3.76;63.66;100130.44;4464099;32;33912;-62
2022/01/20 09:38:00;;;;;;;27.40;14.20;;;;;;;4.10;62.38;100132.25;4462514;32;34918;-63
2022/01/20 09:40:29;;;;;;;33.85;18.08;;;;;;;4.25;62.26;100126.47;4462143;32;33791;-62
2022/01/20 09:42:59;;;;;;;39.88;22.17;;;;;;;4.51;61.41;100128.41;4463658;32;33007;-62
2022/01/20 09:45:27;;;;;;;41.58;23.20;;;;;;;4.71;61.04;100124.72;4453521;32;33844;-63
2022/01/20 09:47:56;;;;;;;39.83;23.05;;;;;;;4.81;60.90;100131.44;4441322;32;32377;-62
2022/01/20 09:50:25;;;;;;;36.00;19.35;;;;;;;4.26;62.41;100128.25;4448615;32;33632;-63
2022/01/20 09:52:59;;;;;;;31.10;15.95;;;;;;;4.69;61.69;100121.16;4449782;32;33794;-62
2022/01/20 09:55:28;;;;;;;34.45;17.92;;;;;;;4.05;62.81;100128.44;4447355;32;33494;-63
2022/01/20 09:57:56;;;;;;;28.62;14.70;;;;;;;3.64;65.21;100123.59;4466937;32;34814;-64
2022/01/20 10:00:23;;;;;;;27.75;13.73;;;;;;;4.05;63.60;100120.72;4459358;32;33306;-62
2022/01/20 10:03:06;;;;;;;24.23;13.62;;;;;;;3.15;67.53;100125.78;4466007;32;33655;-63
2022/01/20 10:05:39;;;;;;;23.62;13.20;;;;;;;3.96;65.09;100111.47;4459171;32;34708;-62
2022/01/20 10:08:15;;;;;;;29.95;14.73;;;;;;;3.27;67.45;100110.50;4462656;32;34738;-63
2022/01/20 10:10:53;;;;;;;21.37;11.45;;;;;;;4.03;65.60;100118.84;4453046;32;32112;-63
2022/01/20 10:13:36;;;;;;;23.90;12.30;;;;;;;3.63;66.78;100121.84;4459143;32;34544;-63
2022/01/20 10:16:11;;;;;;;26.73;14.45;;;;;;;3.68;67.28;100120.50;4460126;32;33636;-62
2022/01/20 10:18:52;;;;;;;26.52;15.25;;;;;;;3.61;68.87;100118.25;4444155;32;35091;-63
2022/01/20 10:21:32;;;;;;;25.55;13.95;;;;;;;3.01;71.62;100115.22;4461522;32;33738;-62
2022/01/20 10:24:08;;;;;;;20.90;10.73;;;;;;;3.09;73.27;100103.91;4458494;32;33709;-62
2022/01/20 10:26:37;;;;;;;20.12;9.35;;;;;;;3.03;75.47;100096.66;4457476;32;34781;-62
2022/01/20 10:29:14;;;;;;;19.95;10.43;;;;;;;2.97;77.36;100090.16;4462968;32;34834;-63
2022/01/20 10:31:49;;;;;;;14.02;7.90;;;;;;;3.00;78.05;100088.75;4459966;32;33443;-63
2022/01/20 10:34:38;;;;;;;19.55;9.15;;;;;;;3.50;76.94;100075.56;4456842;32;34407;-64
2022/01/20 10:37:14;;;;;;;17.10;7.90;;;;;;;3.63;76.28;100079.94;4438650;32;33723;-64
2022/01/20 10:39:44;;;;;;;23.38;8.00;;;;;;;2.96;78.98;100086.72;4458375;32;34326;-62
2022/01/20 10:42:24;;;;;;;19.40;8.93;;;;;;;3.05;79.33;100076.28;4458139;32;33531;-63
2022/01/20 10:44:56;;;;;;;17.30;7.95;;;;;;;3.03;79.72;100070.16;4445255;32;34455;-62
2022/01/20 10:47:27;;;;;;;16.75;7.97;;;;;;;3.23;79.83;100072.62;4461055;32;34444;-62
2022/01/20 10:49:56;;;;;;;14.15;8.05;;;;;;;3.49;79.50;100050.69;4460823;32;34129;-63
2022/01/20 10:52:29;;;;;;;13.35;6.57;;;;;;;3.04;80.73;100054.06;4459458;32;34372;-64
2022/01/20 10:54:58;;;;;;;13.05;6.82;;;;;;;2.91;81.69;100053.06;4446262;32;33768;-61
2022/01/20 10:57:28;;;;;;;12.45;5.95;;;;;;;2.98;81.71;100040.78;4461755;32;33702;-63
2022/01/20 10:59:57;;;;;;;12.25;6.37;;;;;;;3.15;81.74;100043.00;4461274;32;34810;-63
2022/01/20 11:02:29;;;;;;;14.30;7.53;;;;;;;3.28;81.54;100040.63;4461650;32;33466;-63
2022/01/20 11:04:57;;;;;;;11.40;5.82;;;;;;;2.92;82.49;100030.97;4441766;32;33894;-62
2022/01/20 11:07:28;;;;;;;12.43;6.25;;;;;;;3.06;81.97;100022.69;4457968;32;33977;-62
2022/01/20 11:10:05;;;;;;;12.35;5.57;;;;;;;3.09;82.06;100017.81;4467888;32;33689;-63
2022/01/20 11:12:34;;;;;;;9.50;5.07;;;;;;;3.29;80.58;100011.66;4456749;32;33806;-63
2022/01/20 11:15:08;;;;;;;12.25;5.32;;;;;;;3.30;80.74;100003.22;4444967;32;34405;-61
2022/01/20 11:17:40;;;;;;;11.23;6.00;;;;;;;3.29;80.26;100011.66;4462633;32;34705;-63
2022/01/20 11:20:14;;;;;;;12.30;5.37;;;;;;;3.32;79.91;100011.00;4459688;32;34065;-62
2022/01/20 11:23:00;;;;;;;12.20;6.07;;;;;;;3.56;78.48;100011.97;4459504;32;33277;-61
2022/01/20 11:25:30;;;;;;;12.60;5.40;;;;;;;3.42;79.19;100012.59;4460469;32;33974;-64
2022/01/20 11:28:07;;;;;;;11.15;6.40;;;;;;;3.49;78.09;100010.59;4459352;32;33836;-64
2022/01/20 11:30:39;;;;;;;10.85;5.68;;;;;;;3.54;78.55;100006.75;4466356;32;33998;-63
2022/01/20 11:33:11;;;;;;;13.43;5.40;;;;;;;3.39;78.63;99991.88;4432470;32;33121;-62
2022/01/20 11:35:43;;;;;;;9.80;5.28;;;;;;;3.61;77.89;99969.69;4460900;32;34093;-62
2022/01/20 11:38:16;;;;;;;8.15;3.90;;;;;;;3.99;76.87;99963.03;4461782;32;33018;-62
2022/01/20 11:40:57;;;;;;;8.00;4.07;;;;;;;3.81;75.76;99952.34;4468251;32;34893;-62
2022/01/20 11:43:39;;;;;;;8.77;3.83;;;;;;;3.87;75.09;99947.66;4460046;32;33749;-62
2022/01/20 11:46:15;;;;;;;7.70;3.97;;;;;;;3.74;75.34;99946.72;4461732;32;34152;-62
2022/01/20 11:48:52;;;;;;;8.55;4.32;;;;;;;3.92;74.43;99936.06;4463845;32;33728;-63
2022/01/20 11:51:20;;;;;;;8.98;3.53;;;;;;;4.13;73.78;99942.78;4454642;32;34541;-62
2022/01/20 11:54:03;;;;;;;10.60;4.55;;;;;;;4.05;73.63;99933.59;4464849;32;33518;-63
2022/01/20 11:56:35;;;;;;;7.57;3.58;;;;;;;4.15;73.71;99935.16;4461142;32;33662;-63
2022/01/20 11:59:05;;;;;;;8.23;4.07;;;;;;;4.20;73.76;99943.22;4457759;32;33982;-62
2022/01/20 12:02:01;;;;;;;6.97;3.80;;;;;;;4.36;72.89;99940.94;4462174;32;32826;-63
2022/01/20 12:04:34;;;;;;;14.45;7.47;;;;;;;4.42;72.92;99930.22;4444457;32;33501;-63
2022/01/20 12:07:03;;;;;;;14.85;5.30;;;;;;;4.22;73.02;99913.44;4459306;32;34528;-63
2022/01/20 12:09:37;;;;;;;8.15;3.92;;;;;;;4.07;73.70;99915.78;4467552;32;34018;-63
2022/01/20 12:12:18;;;;;;;8.07;3.78;;;;;;;4.33;72.54;99920.22;4461147;32;34521;-62
2022/01/20 12:14:46;;;;;;;12.43;4.53;;;;;;;4.22;72.61;99919.44;4456491;32;33785;-62
2022/01/20 12:17:17;;;;;;;7.18;4.35;;;;;;;4.50;71.31;99909.50;4452452;32;33523;-62
2022/01/20 12:19:54;;;;;;;8.00;3.90;;;;;;;4.38;70.57;99908.59;4458273;32;34653;-62
2022/01/20 12:22:21;;;;;;;10.00;4.47;;;;;;;4.47;69.89;99908.38;4460033;32;34084;-63
2022/01/20 12:24:55;;;;;;;6.95;3.67;;;;;;;4.39;69.73;99912.97;4454418;32;33390;-63
2022/01/20 12:27:24;;;;;;;8.50;4.12;;;;;;;4.51;68.71;99913.81;4460035;32;34505;-64
2022/01/20 12:29:52;;;;;;;8.18;4.95;;;;;;;4.42;68.29;99904.59;4464286;32;33613;-64
2022/01/20 12:32:20;;;;;;;8.32;3.78;;;;;;;4.68;67.22;99886.78;4458966;32;33870;-63
2022/01/20 12:35:00;;;;;;;9.18;4.50;;;;;;;4.66;67.33;99867.81;4460876;32;33359;-63